Time;durP1;ratioP1;P1;durP2;ratioP2;P2;SDS_P1;SDS_P2;PMS_P1;PMS_P2;Temp;Humidity;BMP_temperature;BMP_pressure;BME280_temperature;BME280_humidity;BME280_pressure;Samples;Min_cycle;Max_cycle;Signal;HPM_P1;HPM_P2
2022/03/29 00:01:09;;;;;;;18.40;8.43;;;;;;;7.63;57.54;96040.81;5121838;28;20497;-77
2022/03/29 00:03:35;;;;;;;14.00;9.13;;;;;;;7.54;57.94;96034.66;5127156;28;20524;-78
2022/03/29 00:06:01;;;;;;;19.47;9.67;;;;;;;7.55;58.03;96027.63;5118811;28;20027;-78
2022/03/29 00:08:26;;;;;;;17.90;9.60;;;;;;;7.55;58.06;96028.44;5122260;28;20137;-78
2022/03/29 00:10:52;;;;;;;17.40;9.30;;;;;;;7.46;58.43;96024.09;5126267;28;20027;-77
2022/03/29 00:13:18;;;;;;;19.30;9.93;;;;;;;7.41;58.71;96022.88;5120223;28;20043;-78
2022/03/29 00:23:12;;;;;;;17.00;10.67;;;;;;;7.25;60.07;96011.25;5118981;28;20089;-78
2022/03/29 00:25:38;;;;;;;16.80;9.20;;;;;;;7.20;59.84;96008.22;5122014;28;20044;-78
2022/03/29 00:28:04;;;;;;;17.97;9.07;;;;;;;7.16;59.69;96004.25;5120598;28;20019;-78
2022/03/29 00:30:30;;;;;;;17.07;9.10;;;;;;;7.19;60.02;96000.53;5104556;28;20063;-78
2022/03/29 00:32:55;;;;;;;16.50;9.60;;;;;;;7.23;59.49;95987.00;5122049;28;20034;-78
2022/03/29 00:35:21;;;;;;;15.47;9.20;;;;;;;7.18;59.87;95999.72;5124022;28;20039;-78
2022/03/29 00:37:48;;;;;;;17.80;9.03;;;;;;;7.04;60.76;95992.31;5102797;28;20039;-78
2022/03/29 00:40:14;;;;;;;15.53;9.20;;;;;;;7.03;60.80;95991.50;5125617;28;20031;-78
2022/03/29 00:42:40;;;;;;;17.33;9.13;;;;;;;6.91;61.25;95984.81;5103112;28;20027;-78
2022/03/29 00:45:07;;;;;;;15.87;9.23;;;;;;;6.94;61.29;95983.69;5118423;28;20032;-77
2022/03/29 00:47:33;;;;;;;15.47;9.27;;;;;;;6.89;61.57;95975.47;5122124;28;20055;-78
2022/03/29 00:49:58;;;;;;;16.03;9.00;;;;;;;6.95;62.05;95972.28;5126537;28;20039;-77
2022/03/29 00:52:25;;;;;;;19.60;8.83;;;;;;;6.93;61.71;95964.56;5116848;28;20088;-78
2022/03/29 00:54:51;;;;;;;18.13;9.27;;;;;;;6.91;61.30;95963.06;5119738;28;20027;-77
2022/03/29 00:57:16;;;;;;;17.40;9.00;;;;;;;6.93;61.47;95961.94;5123523;28;20091;-78
2022/03/29 00:59:44;;;;;;;16.03;8.63;;;;;;;7.01;60.51;95954.22;5122126;27;20038;-78
2022/03/29 01:02:10;;;;;;;16.10;9.03;;;;;;;6.99;60.35;95953.53;5124361;28;20028;-77
2022/03/29 01:04:36;;;;;;;15.53;8.37;;;;;;;6.99;60.89;95947.50;5134757;27;20114;-78
2022/03/29 01:07:02;;;;;;;17.63;9.87;;;;;;;7.02;61.31;95952.44;5135710;27;20019;-77
2022/03/29 01:09:29;;;;;;;17.13;9.20;;;;;;;7.03;60.57;95951.47;5121478;28;20036;-77
2022/03/29 01:11:56;;;;;;;15.10;9.30;;;;;;;7.04;62.02;95940.88;5124301;28;20118;-77
2022/03/29 01:14:23;;;;;;;12.97;8.50;;;;;;;7.06;61.90;95938.09;5126168;28;20043;-78
2022/03/29 01:19:37;;;;;;;23.53;8.73;;;;;;;6.99;62.29;95944.88;5116823;28;20028;-78
2022/03/29 01:22:05;;;;;;;14.97;8.80;;;;;;;6.96;62.07;95945.16;5121724;28;20035;-78
2022/03/29 01:24:33;;;;;;;17.20;8.23;;;;;;;6.95;64.08;95930.44;5113459;28;20018;-78
2022/03/29 01:27:00;;;;;;;15.43;8.67;;;;;;;6.91;61.90;95923.84;5124212;27;20055;-78
2022/03/29 01:29:28;;;;;;;16.70;8.97;;;;;;;6.88;61.60;95918.94;5121928;28;20492;-78
2022/03/29 01:31:54;;;;;;;12.67;7.90;;;;;;;6.95;60.53;95912.97;5124722;27;20023;-78
2022/03/29 01:34:21;;;;;;;15.17;8.57;;;;;;;7.02;60.11;95911.41;5122058;28;20023;-78
2022/03/29 01:36:47;;;;;;;17.03;8.83;;;;;;;7.11;59.92;95914.97;5117221;28;20043;-77
2022/03/29 01:39:14;;;;;;;16.67;9.37;;;;;;;7.09;60.66;95898.59;5124344;28;20088;-77
2022/03/29 01:41:40;;;;;;;15.20;8.73;;;;;;;7.03;61.59;95899.97;5123154;28;20027;-78
2022/03/29 01:44:06;;;;;;;16.33;8.50;;;;;;;7.08;60.38;95896.94;5123411;28;20031;-77
2022/03/29 01:46:32;;;;;;;17.90;9.13;;;;;;;7.05;62.24;95889.41;5100648;28;20043;-78
2022/03/29 01:48:59;;;;;;;16.50;9.00;;;;;;;6.94;63.20;95890.41;5125392;28;20062;-78
2022/03/29 01:51:25;;;;;;;14.23;8.83;;;;;;;6.90;64.23;95891.66;5100302;28;20063;-78
2022/03/29 01:53:56;;;;;;;19.00;10.23;;;;;;;6.88;63.82;95887.56;5116136;28;20115;-78
2022/03/29 01:56:25;;;;;;;15.00;9.70;;;;;;;6.86;63.97;95885.06;5116397;28;20036;-78
2022/03/29 01:58:51;;;;;;;16.73;9.33;;;;;;;6.77;64.47;95886.78;5115749;28;20023;-78
2022/03/29 02:01:17;;;;;;;16.27;9.47;;;;;;;6.81;64.67;95884.69;5100364;28;20027;-77
2022/03/29 02:03:43;;;;;;;14.87;9.37;;;;;;;6.78;65.37;95885.00;5121702;27;20102;-78
2022/03/29 02:06:08;;;;;;;14.43;8.57;;;;;;;6.70;66.31;95880.47;5107209;28;20568;-77
2022/03/29 02:08:34;;;;;;;13.77;8.30;;;;;;;6.72;65.91;95877.72;5123471;28;20105;-77
2022/03/29 02:11:00;;;;;;;14.10;8.50;;;;;;;6.72;67.01;95880.34;5125148;28;20031;-77
2022/03/29 02:13:26;;;;;;;15.23;8.70;;;;;;;6.75;66.88;95877.44;5117466;28;20039;-77
2022/03/29 02:15:52;;;;;;;15.47;8.57;;;;;;;6.71;67.50;95882.13;5116913;28;20036;-77
2022/03/29 02:18:18;;;;;;;14.30;8.33;;;;;;;6.70;64.21;95875.22;5105269;28;20020;-78
2022/03/29 02:20:44;;;;;;;16.80;8.80;;;;;;;6.84;61.79;95877.41;5107050;28;20034;-77
2022/03/29 02:23:15;;;;;;;18.63;8.97;;;;;;;6.88;60.68;95874.50;5125037;28;20099;-77
2022/03/29 02:25:42;;;;;;;13.03;7.70;;;;;;;7.07;59.45;95866.53;5111306;27;20046;-77
2022/03/29 02:28:09;;;;;;;17.50;8.13;;;;;;;7.10;58.93;95871.47;5112333;28;20021;-77
2022/03/29 02:30:36;;;;;;;14.53;9.00;;;;;;;7.15;58.67;95864.00;5117756;28;20035;-78
2022/03/29 02:33:05;;;;;;;21.73;12.03;;;;;;;7.09;58.65;95854.13;5116921;28;20107;-78
2022/03/29 02:35:32;;;;;;;24.70;13.37;;;;;;;7.02;59.46;95859.13;5124317;28;20019;-78
2022/03/29 02:37:59;;;;;;;17.63;9.60;;;;;;;6.94;60.39;95845.13;5113830;28;20107;-77
2022/03/29 02:40:25;;;;;;;14.37;8.80;;;;;;;6.95;59.88;95849.41;5113894;28;20043;-77
2022/03/29 02:42:53;;;;;;;19.17;9.10;;;;;;;6.98;59.02;95847.31;5135009;27;20040;-78
2022/03/29 02:45:20;;;;;;;15.23;8.90;;;;;;;6.94;59.78;95845.97;5096309;28;20038;-78
2022/03/29 02:47:49;;;;;;;16.33;8.23;;;;;;;6.99;59.23;95848.16;5122250;28;20069;-78
2022/03/29 02:50:15;;;;;;;16.17;9.00;;;;;;;7.01;59.48;95841.00;5122035;28;20069;-78
2022/03/29 02:52:55;;;;;;;15.50;8.43;;;;;;;7.04;58.87;95831.06;5122729;28;20039;-78
2022/03/29 02:55:25;;;;;;;16.60;8.53;;;;;;;7.01;59.38;95831.34;5115125;28;20471;-78
2022/03/29 02:57:51;;;;;;;21.60;9.87;;;;;;;6.94;59.37;95824.22;5112958;28;20031;-78
2022/03/29 03:00:17;;;;;;;15.33;9.23;;;;;;;6.93;59.67;95823.41;5121324;27;20384;-77
2022/03/29 03:02:48;;;;;;;15.30;8.60;;;;;;;6.88;60.08;95827.44;5116360;28;20121;-78
2022/03/29 03:05:15;;;;;;;17.70;9.00;;;;;;;6.90;59.91;95821.06;5120312;28;20099;-77
2022/03/29 03:07:43;;;;;;;17.70;7.83;;;;;;;6.91;60.17;95824.50;5122811;28;20506;-78
2022/03/29 03:10:10;;;;;;;15.00;8.47;;;;;;;6.80;60.62;95818.50;5113554;28;20090;-78
2022/03/29 03:12:37;;;;;;;14.87;8.80;;;;;;;6.75;61.04;95814.72;5121629;28;20046;-78
2022/03/29 03:15:05;;;;;;;16.23;9.47;;;;;;;6.63;61.60;95815.88;5121821;28;20044;-78
2022/03/29 03:17:31;;;;;;;15.97;8.57;;;;;;;6.48;62.88;95818.97;5121780;28;20074;-77
2022/03/29 03:19:56;;;;;;;19.23;9.43;;;;;;;6.41;63.39;95817.09;5104024;28;20036;-77
2022/03/29 03:22:22;;;;;;;17.77;9.30;;;;;;;6.34;64.57;95817.66;5114549;28;20047;-76
2022/03/29 03:24:48;;;;;;;18.27;9.90;;;;;;;6.15;66.25;95807.25;5122541;28;20039;-78
2022/03/29 03:27:16;;;;;;;15.73;8.87;;;;;;;6.19;66.73;95807.81;5120374;27;20020;-78
2022/03/29 03:29:46;;;;;;;16.03;9.10;;;;;;;6.20;66.78;95805.03;5102626;28;20044;-76
2022/03/29 03:32:13;;;;;;;14.90;8.73;;;;;;;6.20;67.20;95799.81;5120453;28;20032;-77
2022/03/29 03:34:39;;;;;;;19.70;9.60;;;;;;;6.07;68.30;95801.91;5114883;28;20058;-77
2022/03/29 03:37:06;;;;;;;18.43;9.80;;;;;;;6.08;68.93;95798.38;5116057;28;20055;-77
2022/03/29 03:39:34;;;;;;;17.13;9.73;;;;;;;6.00;69.15;95799.06;5121466;28;20047;-78
2022/03/29 03:42:00;;;;;;;17.10;8.73;;;;;;;5.99;69.64;95789.59;5121713;28;20046;-78
2022/03/29 03:44:27;;;;;;;15.60;9.10;;;;;;;5.96;69.96;95783.81;5097609;28;20031;-77
2022/03/29 03:46:53;;;;;;;17.60;8.87;;;;;;;6.03;70.21;95787.50;5105486;28;20092;-78
2022/03/29 03:49:19;;;;;;;15.90;8.80;;;;;;;5.95;70.44;95792.63;5115334;28;20624;-78
2022/03/29 03:51:44;;;;;;;14.27;8.97;;;;;;;5.94;70.71;95791.81;5123558;28;20031;-76
2022/03/29 03:54:10;;;;;;;15.77;9.07;;;;;;;5.94;70.65;95780.56;5105567;28;20123;-77
2022/03/29 03:56:36;;;;;;;22.23;10.47;;;;;;;5.95;70.59;95777.78;5106122;28;20020;-77
2022/03/29 03:59:02;;;;;;;15.07;8.97;;;;;;;5.99;70.57;95778.31;5111878;28;20031;-77
2022/03/29 04:01:28;;;;;;;15.00;9.03;;;;;;;6.07;70.00;95778.41;5095282;28;20042;-77
2022/03/29 04:03:53;;;;;;;16.00;9.20;;;;;;;6.06;69.95;95776.78;5119296;28;20031;-78
2022/03/29 04:06:19;;;;;;;16.60;9.20;;;;;;;6.07;69.20;95775.81;5112634;28;20027;-78
2022/03/29 04:08:45;;;;;;;15.40;10.30;;;;;;;6.08;69.15;95774.88;5106450;28;20062;-78
2022/03/29 04:11:14;;;;;;;18.33;11.07;;;;;;;6.09;68.58;95766.06;5100005;28;20122;-77
2022/03/29 04:13:40;;;;;;;16.67;10.30;;;;;;;6.18;68.16;95770.44;5116522;28;20078;-78
2022/03/29 04:16:06;;;;;;;20.00;12.97;;;;;;;6.22;67.79;95766.56;5102332;28;20777;-78
2022/03/29 04:18:31;;;;;;;17.87;9.60;;;;;;;6.25;67.45;95755.84;5098669;28;20032;-78
2022/03/29 04:20:57;;;;;;;18.90;9.90;;;;;;;6.29;67.67;95756.38;5119376;28;20027;-78
2022/03/29 04:23:23;;;;;;;17.50;9.20;;;;;;;6.31;67.26;95764.88;5119632;28;20090;-78
2022/03/29 04:25:49;;;;;;;18.50;10.37;;;;;;;6.23;68.80;95760.38;5118346;28;20031;-77
2022/03/29 04:28:15;;;;;;;16.50;10.40;;;;;;;6.24;68.29;95754.19;5121008;28;20076;-77
2022/03/29 04:30:40;;;;;;;17.73;10.50;;;;;;;6.18;67.14;95754.75;5119277;28;20028;-78
2022/03/29 04:33:06;;;;;;;21.93;10.47;;;;;;;6.13;68.43;95751.75;5120021;28;20028;-78
2022/03/29 04:35:32;;;;;;;17.37;9.90;;;;;;;6.20;67.81;95757.22;5116192;28;20035;-78
2022/03/29 04:37:58;;;;;;;19.90;9.73;;;;;;;6.07;67.78;95754.94;5118784;28;20394;-78
2022/03/29 04:40:23;;;;;;;17.87;9.70;;;;;;;5.91;69.24;95760.75;5118135;28;20061;-77
2022/03/29 04:42:51;;;;;;;18.00;9.73;;;;;;;5.88;69.77;95756.63;5116995;28;20161;-78
2022/03/29 04:45:18;;;;;;;17.70;10.23;;;;;;;5.86;69.50;95755.94;5118172;28;20036;-78
2022/03/29 04:47:45;;;;;;;18.67;9.87;;;;;;;5.95;69.80;95750.88;5121179;28;20084;-77
2022/03/29 04:50:13;;;;;;;16.17;9.93;;;;;;;5.93;69.39;95758.81;5118651;28;20439;-78
2022/03/29 04:52:44;;;;;;;24.63;13.13;;;;;;;5.84;69.42;95755.25;5124834;28;20552;-78
2022/03/29 04:55:12;;;;;;;23.37;13.63;;;;;;;5.75;69.53;95755.28;5130834;28;20058;-78
2022/03/29 04:57:38;;;;;;;26.70;14.10;;;;;;;5.66;71.86;95754.34;5097090;28;20027;-78
2022/03/29 05:00:05;;;;;;;16.40;10.97;;;;;;;5.69;72.42;95746.22;5123278;28;20046;-78
2022/03/29 05:02:31;;;;;;;18.53;10.10;;;;;;;5.67;72.71;95750.78;5130740;27;20123;-78
2022/03/29 05:04:57;;;;;;;19.07;9.90;;;;;;;5.65;71.38;95752.69;5123918;28;20020;-78
2022/03/29 05:07:23;;;;;;;17.37;10.47;;;;;;;5.60;72.48;95747.06;5114957;27;20031;-78
2022/03/29 05:09:50;;;;;;;18.40;10.73;;;;;;;5.66;72.40;95754.34;5117861;28;20039;-78
2022/03/29 05:12:16;;;;;;;20.80;11.73;;;;;;;5.62;72.30;95755.59;5124236;28;20028;-78
2022/03/29 05:14:43;;;;;;;25.27;14.67;;;;;;;5.59;73.00;95743.63;5126677;28;20065;-77
2022/03/29 05:17:09;;;;;;;45.63;18.83;;;;;;;5.60;71.90;95750.53;5112531;28;20046;-78
2022/03/29 05:19:34;;;;;;;30.40;15.47;;;;;;;5.52;73.56;95744.34;5128262;28;20086;-76
2022/03/29 05:22:00;;;;;;;26.97;14.83;;;;;;;5.32;75.89;95741.75;5117607;27;20030;-78
2022/03/29 05:24:26;;;;;;;24.03;13.47;;;;;;;5.35;75.84;95751.91;5120435;28;20042;-77
2022/03/29 05:26:51;;;;;;;26.43;13.27;;;;;;;5.27;74.50;95749.19;5129855;27;20031;-78
2022/03/29 05:29:21;;;;;;;23.50;13.97;;;;;;;5.40;73.43;95754.13;5126304;28;20019;-77
2022/03/29 05:31:47;;;;;;;20.23;12.03;;;;;;;5.52;71.37;95758.22;5123577;28;20016;-77
2022/03/29 05:34:15;;;;;;;19.00;11.30;;;;;;;5.63;71.66;95752.84;5125650;28;20023;-77
2022/03/29 05:36:44;;;;;;;19.13;11.37;;;;;;;5.67;71.84;95746.38;5108837;27;20478;-77
2022/03/29 05:39:10;;;;;;;18.40;10.67;;;;;;;5.72;71.47;95751.16;5096852;28;20032;-77
2022/03/29 05:41:36;;;;;;;22.17;11.07;;;;;;;5.72;72.47;95745.94;5107573;28;20131;-77
2022/03/29 05:44:02;;;;;;;20.87;10.90;;;;;;;5.53;73.40;95749.41;5113623;28;20110;-78
2022/03/29 05:49:12;;;;;;;19.53;11.13;;;;;;;5.82;73.35;95754.56;5116640;27;20524;-77
2022/03/29 05:51:37;;;;;;;17.93;10.67;;;;;;;6.07;72.73;95757.53;5110171;27;20038;-77
2022/03/29 05:54:04;;;;;;;18.87;10.10;;;;;;;6.29;71.48;95762.41;5102456;28;20043;-77
2022/03/29 05:56:30;;;;;;;23.37;12.07;;;;;;;6.37;70.86;95761.66;5118114;27;20023;-77
2022/03/29 05:58:56;;;;;;;20.13;12.23;;;;;;;6.36;71.23;95762.66;5118411;27;20385;-77
2022/03/29 06:01:22;;;;;;;22.23;12.37;;;;;;;6.36;71.30;95757.44;5119719;27;20027;-77
2022/03/29 06:03:49;;;;;;;19.53;10.77;;;;;;;6.43;71.14;95755.06;5104918;28;20047;-76
2022/03/29 06:06:15;;;;;;;26.70;11.10;;;;;;;6.61;69.61;95750.72;5122700;28;20055;-77
2022/03/29 06:08:41;;;;;;;23.30;11.33;;;;;;;6.70;68.70;95749.81;5110746;28;20384;-77
2022/03/29 06:11:07;;;;;;;25.63;12.80;;;;;;;6.86;67.57;95743.94;5112669;28;20056;-76
2022/03/29 06:13:34;;;;;;;21.27;12.00;;;;;;;7.00;67.47;95751.25;5112038;28;20108;-77
2022/03/29 06:16:00;;;;;;;26.33;11.83;;;;;;;7.19;67.06;95750.28;5103917;28;20028;-77
2022/03/29 06:18:26;;;;;;;25.93;12.77;;;;;;;7.19;66.41;95746.84;5113092;28;20081;-77
2022/03/29 06:20:52;;;;;;;20.70;12.57;;;;;;;7.38;65.65;95743.25;5113772;28;20039;-77
2022/03/29 06:23:19;;;;;;;21.13;11.97;;;;;;;7.53;64.44;95742.56;5113242;28;20026;-77
2022/03/29 06:25:46;;;;;;;23.43;12.50;;;;;;;7.57;63.98;95748.31;5113434;28;20088;-77
2022/03/29 06:28:14;;;;;;;20.37;11.97;;;;;;;7.98;62.19;95741.56;5113661;28;20118;-77
2022/03/29 06:30:40;;;;;;;23.53;10.90;;;;;;;8.24;60.35;95732.81;5113519;28;20408;-77
2022/03/29 06:33:05;;;;;;;18.03;10.67;;;;;;;8.42;59.30;95738.03;5110187;28;20028;-77
2022/03/29 06:35:34;;;;;;;19.57;11.00;;;;;;;8.69;58.11;95736.97;5093798;28;20648;-77
2022/03/29 06:38:00;;;;;;;22.43;11.90;;;;;;;8.90;57.32;95736.53;5110828;28;20038;-77
2022/03/29 06:40:27;;;;;;;21.77;12.07;;;;;;;9.19;58.39;95742.16;5110484;28;20703;-77
2022/03/29 06:42:55;;;;;;;21.87;12.03;;;;;;;9.25;59.12;95734.59;5111792;28;20616;-77
2022/03/29 06:45:21;;;;;;;18.37;12.13;;;;;;;9.12;60.03;95735.91;5102663;28;20649;-78
2022/03/29 06:47:47;;;;;;;23.07;12.00;;;;;;;9.52;57.98;95729.00;5110332;28;20064;-78
2022/03/29 06:50:14;;;;;;;18.50;11.67;;;;;;;9.76;55.88;95719.47;5112036;28;20040;-77
2022/03/29 06:52:42;;;;;;;21.73;11.20;;;;;;;10.02;55.12;95722.69;5110250;28;20397;-78
2022/03/29 06:55:17;;;;;;;21.50;11.50;;;;;;;10.31;52.74;95716.09;5111237;28;20020;-77
2022/03/29 06:57:44;;;;;;;21.37;12.50;;;;;;;10.81;51.02;95709.59;5111058;28;20530;-78
2022/03/29 07:00:15;;;;;;;22.03;11.80;;;;;;;10.92;51.45;95713.63;5110601;28;20745;-77
2022/03/29 07:02:41;;;;;;;24.33;11.20;;;;;;;10.76;53.46;95709.28;5110356;28;20028;-78
2022/03/29 07:05:08;;;;;;;17.93;10.70;;;;;;;11.14;50.23;95709.41;5108124;27;20035;-77
2022/03/29 07:07:34;;;;;;;19.87;10.90;;;;;;;11.16;50.21;95707.38;5110283;28;20023;-77
2022/03/29 07:12:56;;;;;;;17.90;10.53;;;;;;;11.31;50.28;95708.28;5111012;28;20027;-78
2022/03/29 07:15:22;;;;;;;17.57;11.10;;;;;;;11.26;50.57;95715.88;5104252;28;20513;-78
2022/03/29 07:17:55;;;;;;;16.57;10.50;;;;;;;11.21;49.77;95713.78;5110728;28;20498;-78
2022/03/29 07:20:27;;;;;;;17.15;10.35;;;;;;;11.20;48.68;95714.78;5110401;28;20063;-78
2022/03/29 07:22:53;;;;;;;23.10;10.40;;;;;;;11.20;49.06;95711.31;5107565;28;20066;-77
2022/03/29 07:25:22;;;;;;;18.20;10.37;;;;;;;11.48;49.82;95714.22;5111694;28;20618;-77
2022/03/29 07:27:49;;;;;;;19.70;10.47;;;;;;;11.77;49.28;95711.66;5108710;28;20039;-77
2022/03/29 07:30:15;;;;;;;22.93;11.33;;;;;;;11.84;49.43;95709.16;5122772;27;20624;-78
2022/03/29 07:32:49;;;;;;;17.77;9.93;;;;;;;11.61;48.92;95714.44;5105904;28;20115;-78
2022/03/29 07:35:16;;;;;;;16.63;10.20;;;;;;;11.65;48.99;95715.72;5099378;28;20024;-77
2022/03/29 07:37:45;;;;;;;17.50;10.03;;;;;;;11.79;48.86;95711.47;5102393;28;20100;-77
2022/03/29 07:40:13;;;;;;;15.20;9.33;;;;;;;11.77;48.75;95718.75;5101045;28;20030;-78
2022/03/29 07:42:39;;;;;;;18.17;9.47;;;;;;;11.71;48.92;95724.72;5109858;28;20050;-77
2022/03/29 07:45:06;;;;;;;27.90;17.67;;;;;;;11.91;48.96;95720.63;5114336;27;20131;-77
2022/03/29 07:47:34;;;;;;;15.93;10.57;;;;;;;11.86;48.91;95719.50;5115991;28;20065;-78
2022/03/29 07:50:05;;;;;;;18.30;10.23;;;;;;;11.90;49.32;95713.69;5110770;28;20441;-76
2022/03/29 07:52:40;;;;;;;16.97;10.63;;;;;;;12.00;48.25;95710.78;5112096;28;20399;-76
2022/03/29 07:55:09;;;;;;;17.93;10.13;;;;;;;12.40;48.10;95712.16;5093136;28;20039;-76
2022/03/29 07:57:39;;;;;;;17.63;10.07;;;;;;;12.83;47.20;95714.91;5111547;28;20161;-77
2022/03/29 08:00:53;;;;;;;18.93;10.53;;;;;;;12.82;45.82;95710.66;5110323;28;20415;-77
2022/03/29 08:02:55;;;;;;;15.23;9.97;;;;;;;12.65;46.53;95712.69;5105903;28;20089;-77
2022/03/29 08:05:21;;;;;;;18.60;10.60;;;;;;;12.87;46.50;95705.63;5111356;28;20036;-77
2022/03/29 08:07:48;;;;;;;16.27;10.07;;;;;;;13.05;46.45;95709.69;5114936;28;20079;-76
2022/03/29 08:10:18;;;;;;;15.60;9.93;;;;;;;13.27;45.94;95711.34;5117806;28;20054;-78
2022/03/29 08:12:44;;;;;;;17.73;10.23;;;;;;;13.76;45.01;95707.91;5111112;28;20034;-78
2022/03/29 08:15:11;;;;;;;18.17;11.03;;;;;;;13.74;45.59;95706.47;5109804;28;20031;-78
2022/03/29 08:17:38;;;;;;;16.83;11.13;;;;;;;13.68;45.06;95708.03;5111326;28;20028;-78
2022/03/29 08:20:06;;;;;;;16.50;11.07;;;;;;;14.06;44.02;95711.16;5110855;28;20028;-78
2022/03/29 08:22:34;;;;;;;17.33;11.87;;;;;;;14.26;43.79;95710.47;5112064;28;20033;-79
2022/03/29 08:25:01;;;;;;;18.23;11.30;;;;;;;14.54;42.77;95707.78;5105305;28;20031;-78
2022/03/29 08:27:27;;;;;;;17.50;10.50;;;;;;;14.87;42.97;95701.81;5114113;28;20031;-78
2022/03/29 08:29:52;;;;;;;20.17;11.67;;;;;;;15.26;40.87;95701.91;5094112;28;20042;-78
2022/03/29 08:32:18;;;;;;;18.47;11.13;;;;;;;15.29;41.07;95701.53;5114824;28;20341;-78
2022/03/29 08:34:44;;;;;;;18.47;12.20;;;;;;;15.20;41.66;95699.25;5115771;28;20388;-79
2022/03/29 08:37:10;;;;;;;19.20;11.63;;;;;;;15.14;42.54;95703.50;5101790;28;20036;-78
2022/03/29 08:39:36;;;;;;;15.97;11.17;;;;;;;15.13;41.43;95699.25;5112017;28;20032;-77
2022/03/29 08:42:07;;;;;;;18.57;12.67;;;;;;;15.83;40.92;95691.78;5107615;28;20058;-77
2022/03/29 08:44:34;;;;;;;19.90;11.57;;;;;;;15.97;39.77;95688.09;5115359;28;20369;-78
2022/03/29 08:47:01;;;;;;;20.57;12.13;;;;;;;16.10;39.07;95683.81;5115347;28;20035;-78
2022/03/29 08:49:27;;;;;;;29.07;12.60;;;;;;;16.43;38.70;95683.69;5110895;28;20496;-78
2022/03/29 08:51:57;;;;;;;20.47;11.77;;;;;;;16.72;40.11;95683.19;5093691;28;20544;-78
2022/03/29 08:54:22;;;;;;;18.30;11.90;;;;;;;16.78;37.54;95686.06;5095040;28;20780;-77
2022/03/29 08:56:48;;;;;;;18.20;11.37;;;;;;;16.28;38.76;95686.59;5093284;28;20123;-78
2022/03/29 08:59:15;;;;;;;18.07;11.70;;;;;;;16.03;37.80;95681.16;5098440;28;20533;-78
2022/03/29 09:01:40;;;;;;;17.93;11.10;;;;;;;16.16;37.61;95683.78;5113678;28;20024;-78
2022/03/29 09:04:14;;;;;;;20.40;11.97;;;;;;;16.12;38.97;95679.09;5120664;27;20077;-78
2022/03/29 09:06:50;;;;;;;24.27;18.17;;;;;;;15.97;38.36;95681.97;5120117;27;20377;-78
2022/03/29 09:09:28;;;;;;;17.57;12.00;;;;;;;16.29;38.34;95679.44;5112307;28;20027;-78
2022/03/29 09:11:56;;;;;;;17.70;11.13;;;;;;;15.93;39.08;95675.47;5113463;28;20089;-78
2022/03/29 09:14:23;;;;;;;18.63;11.83;;;;;;;16.11;39.52;95666.84;5114726;28;20066;-78
2022/03/29 09:16:50;;;;;;;18.53;11.20;;;;;;;16.21;38.44;95670.69;5115957;28;20469;-78
2022/03/29 09:19:21;;;;;;;18.67;11.53;;;;;;;16.26;38.56;95670.91;5096372;28;20039;-78
2022/03/29 09:21:47;;;;;;;18.37;11.30;;;;;;;16.52;38.02;95666.53;5114911;28;20036;-78
2022/03/29 09:24:18;;;;;;;18.73;11.20;;;;;;;16.80;38.26;95670.72;5115924;28;20054;-78
2022/03/29 09:26:46;;;;;;;18.87;11.30;;;;;;;16.36;37.91;95670.44;5104032;28;20534;-78
2022/03/29 09:29:13;;;;;;;19.90;11.45;;;;;;;16.31;37.61;95669.47;5098667;28;20031;-78
2022/03/29 09:31:39;;;;;;;17.33;11.35;;;;;;;16.68;37.26;95674.00;5110938;28;20043;-78
2022/03/29 09:34:17;;;;;;;18.27;10.63;;;;;;;16.54;37.73;95664.47;5107066;28;20028;-78
2022/03/29 09:36:52;;;;;;;17.40;11.30;;;;;;;16.21;37.66;95665.41;5112707;28;20035;-77
2022/03/29 09:39:36;;;;;;;16.50;11.17;;;;;;;16.07;37.81;95663.81;5092939;28;20119;-78
2022/03/29 09:42:20;;;;;;;23.00;13.93;;;;;;;15.87;38.73;95657.72;5111610;28;20046;-78
2022/03/29 09:44:47;;;;;;;19.17;11.87;;;;;;;16.17;39.05;95658.06;5113284;28;20039;-77
2022/03/29 09:47:21;;;;;;;17.40;10.77;;;;;;;15.81;39.36;95661.19;5113449;28;20027;-78
2022/03/29 09:50:01;;;;;;;20.47;12.37;;;;;;;15.64;40.22;95660.75;5099305;28;20480;-78
2022/03/29 09:52:31;;;;;;;17.87;11.60;;;;;;;15.94;40.29;95647.91;5116082;28;20500;-77
2022/03/29 09:55:09;;;;;;;17.87;10.80;;;;;;;15.58;41.29;95657.09;5102801;28;20031;-78
2022/03/29 09:57:44;;;;;;;20.40;12.10;;;;;;;15.94;40.64;95651.38;5094545;28;20067;-78
2022/03/29 10:00:16;;;;;;;17.10;11.73;;;;;;;15.81;41.29;95646.09;5092181;28;20032;-77
2022/03/29 10:02:46;;;;;;;19.90;12.70;;;;;;;15.89;40.09;95645.06;5092165;28;20065;-78
2022/03/29 10:05:15;;;;;;;20.77;13.03;;;;;;;15.93;40.32;95639.16;5096547;28;20032;-78
2022/03/29 10:07:50;;;;;;;17.27;11.27;;;;;;;15.77;39.81;95643.03;5113103;28;20061;-79
2022/03/29 10:10:16;;;;;;;19.03;12.03;;;;;;;16.02;40.24;95637.06;5095854;28;20114;-78
2022/03/29 10:12:42;;;;;;;22.73;11.60;;;;;;;16.43;39.86;95630.63;5110220;28;20496;-78
2022/03/29 10:15:09;;;;;;;21.43;13.17;;;;;;;16.54;37.98;95637.94;5093338;28;20028;-78
2022/03/29 10:17:36;;;;;;;20.07;12.07;;;;;;;16.89;36.60;95621.63;5112638;28;20063;-79
2022/03/29 10:20:08;;;;;;;20.70;12.37;;;;;;;17.24;36.48;95619.38;5097801;28;20024;-79
2022/03/29 10:22:35;;;;;;;21.33;11.63;;;;;;;17.22;35.77;95615.31;5116881;28;20024;-78
2022/03/29 10:25:06;;;;;;;19.47;11.93;;;;;;;17.41;35.91;95615.16;5113141;28;20047;-78
2022/03/29 10:27:32;;;;;;;20.33;13.23;;;;;;;17.78;36.19;95609.13;5114129;28;20030;-79
2022/03/29 10:29:58;;;;;;;18.20;10.93;;;;;;;18.18;36.25;95608.72;5112806;28;20027;-78
2022/03/29 10:32:29;;;;;;;24.40;13.30;;;;;;;17.81;35.88;95609.50;5113836;28;20031;-78
2022/03/29 10:35:06;;;;;;;17.63;12.15;;;;;;;17.95;36.46;95612.84;5113085;28;20065;-78
2022/03/29 10:37:56;;;;;;;19.17;12.52;;;;;;;17.54;36.42;95603.59;5113959;28;20035;-78
2022/03/29 10:40:51;;;;;;;19.58;12.02;;;;;;;18.52;35.52;95600.13;5096690;28;20100;-78
2022/03/29 10:43:32;;;;;;;18.02;12.15;;;;;;;18.17;36.04;95599.91;5078405;28;20039;-79
2022/03/29 10:46:00;;;;;;;18.48;12.82;;;;;;;18.36;35.82;95601.53;5111131;28;20023;-78
2022/03/29 10:48:27;;;;;;;18.38;12.05;;;;;;;17.73;35.92;95595.63;5089853;28;20552;-78
2022/03/29 10:51:01;;;;;;;17.52;11.80;;;;;;;18.29;36.05;95594.66;5112661;28;20106;-79
2022/03/29 10:53:31;;;;;;;18.60;12.40;;;;;;;17.91;35.83;95593.03;5112654;27;20023;-78
2022/03/29 10:56:15;;;;;;;18.73;11.88;;;;;;;18.06;35.20;95590.00;5094135;28;20040;-78
2022/03/29 10:59:03;;;;;;;18.60;11.52;;;;;;;18.26;34.94;95589.78;5112512;28;20114;-78
2022/03/29 11:01:32;;;;;;;21.40;12.18;;;;;;;17.78;35.63;95583.34;5110659;28;20032;-78
2022/03/29 11:04:20;;;;;;;19.15;12.88;;;;;;;17.87;35.43;95581.19;5110790;28;20028;-78
2022/03/29 11:07:09;;;;;;;19.60;12.25;;;;;;;18.13;35.28;95569.47;5095012;28;20496;-78
2022/03/29 11:09:36;;;;;;;16.52;12.63;;;;;;;17.77;35.01;95572.91;5097618;28;20373;-79
2022/03/29 11:12:03;;;;;;;22.90;13.35;;;;;;;18.41;34.01;95568.94;5110062;28;20036;-78
2022/03/29 11:14:35;;;;;;;20.75;12.32;;;;;;;17.96;34.02;95566.56;5110217;28;20034;-77
2022/03/29 11:17:09;;;;;;;20.20;13.10;;;;;;;18.08;33.73;95564.00;5098317;28;20039;-78
2022/03/29 11:19:48;;;;;;;21.38;13.43;;;;;;;18.24;32.87;95567.91;5099429;28;20487;-77
2022/03/29 11:22:24;;;;;;;19.02;12.00;;;;;;;18.69;33.65;95556.88;5091448;28;20042;-77
2022/03/29 11:24:52;;;;;;;18.60;12.70;;;;;;;18.15;33.77;95551.44;5098041;28;20586;-77
2022/03/29 11:27:31;;;;;;;20.92;13.05;;;;;;;18.47;33.48;95552.03;5110600;28;20020;-77
2022/03/29 11:29:57;;;;;;;22.23;14.02;;;;;;;18.09;34.38;95552.31;5098477;28;20477;-78
2022/03/29 11:32:23;;;;;;;22.48;13.32;;;;;;;18.20;33.63;95548.09;5093554;28;20032;-78
2022/03/29 11:34:57;;;;;;;20.33;14.10;;;;;;;18.67;33.91;95537.63;5107279;28;20040;-78
2022/03/29 11:37:32;;;;;;;23.77;13.93;;;;;;;18.79;32.67;95538.53;5098063;28;20065;-78
2022/03/29 11:39:59;;;;;;;24.85;14.85;;;;;;;18.19;33.70;95530.50;5096459;28;20034;-78
2022/03/29 11:42:49;;;;;;;19.70;12.57;;;;;;;18.81;34.14;95528.44;5095770;28;20028;-78
2022/03/29 11:45:23;;;;;;;17.83;12.63;;;;;;;18.59;34.09;95530.78;5089372;28;20036;-78